createdAt,value
2018-09-26T00:02:31.115Z,7.50
2018-09-26T00:05:00.121Z,7.40
2018-09-26T00:07:28.593Z,7.40
2018-09-26T00:09:57.143Z,7.40
2018-09-26T00:12:25.614Z,7.30
2018-09-26T00:14:54.183Z,7.30
2018-09-26T00:17:22.714Z,7.20
2018-09-26T00:19:51.275Z,7.20
2018-09-26T00:22:19.881Z,7.20
2018-09-26T00:24:48.361Z,7.20
2018-09-26T00:27:16.862Z,7.10
2018-09-26T00:29:45.318Z,7.10
2018-09-26T00:32:13.810Z,7.10
2018-09-26T00:34:42.401Z,7.10
2018-09-26T00:37:10.862Z,7.00
2018-09-26T00:39:39.408Z,7.00
2018-09-26T00:42:08.081Z,7.00
2018-09-26T00:44:36.598Z,6.90
2018-09-26T00:47:05.194Z,6.90
2018-09-26T00:49:33.774Z,6.90
2018-09-26T00:52:02.300Z,6.90
2018-09-26T00:54:30.857Z,6.80
2018-09-26T00:56:59.426Z,6.80
2018-09-26T00:59:28.009Z,6.80
2018-09-26T01:01:56.650Z,6.70
2018-09-26T01:04:25.236Z,6.70
2018-09-26T01:06:53.988Z,6.70
2018-09-26T01:09:22.703Z,6.70
2018-09-26T01:11:51.544Z,6.70
2018-09-26T01:14:20.246Z,6.70
2018-09-26T01:16:48.963Z,6.60
2018-09-26T01:19:17.473Z,6.60
2018-09-26T01:21:46.001Z,6.60
2018-09-26T01:24:14.545Z,6.60
2018-09-26T01:26:43.149Z,6.60
2018-09-26T01:29:11.726Z,6.60
2018-09-26T01:31:40.214Z,6.60
2018-09-26T01:34:08.805Z,6.60
2018-09-26T01:36:37.641Z,6.70
2018-09-26T01:39:08.517Z,6.70
2018-09-26T01:41:37.309Z,6.70
2018-09-26T01:44:06.083Z,6.70
2018-09-26T01:46:34.673Z,6.80
2018-09-26T01:49:03.159Z,6.70
2018-09-26T01:51:31.765Z,6.70
2018-09-26T01:54:00.337Z,6.80
2018-09-26T01:56:28.917Z,6.80
2018-09-26T01:58:57.570Z,6.70
2018-09-26T02:01:26.014Z,6.80
2018-09-26T02:03:54.873Z,6.70
2018-09-26T02:06:23.433Z,6.70
2018-09-26T02:08:52.036Z,6.70
2018-09-26T02:11:20.646Z,6.70
2018-09-26T02:13:49.131Z,6.60
2018-09-26T02:16:17.600Z,6.60
2018-09-26T02:18:46.375Z,6.50
2018-09-26T02:21:15.165Z,6.50
2018-09-26T02:23:43.672Z,6.40
2018-09-26T02:26:12.325Z,6.50
2018-09-26T02:28:40.805Z,6.40
2018-09-26T02:31:09.666Z,6.50
2018-09-26T02:33:38.152Z,6.50
2018-09-26T02:36:06.762Z,6.50
2018-09-26T02:38:35.268Z,6.50
2018-09-26T02:41:03.785Z,6.50
2018-09-26T02:43:32.323Z,6.50
2018-09-26T02:46:00.770Z,6.40
2018-09-26T02:48:34.638Z,6.40
2018-09-26T02:51:03.149Z,6.40
2018-09-26T02:53:31.656Z,6.40
2018-09-26T02:56:00.232Z,6.40
2018-09-26T02:58:28.855Z,6.40
2018-09-26T03:00:57.376Z,6.40
2018-09-26T03:03:25.893Z,6.40
2018-09-26T03:05:54.484Z,6.40
2018-09-26T03:08:23.045Z,6.40
2018-09-26T03:10:51.608Z,6.40
2018-09-26T03:13:20.110Z,6.40
2018-09-26T03:15:48.983Z,6.40
2018-09-26T03:18:17.560Z,6.40
2018-09-26T03:20:46.273Z,6.50
2018-09-26T03:23:15.120Z,6.50
2018-09-26T03:25:43.826Z,6.40
2018-09-26T03:28:12.397Z,6.50
2018-09-26T03:30:41.748Z,6.40
2018-09-26T03:33:10.415Z,6.40
2018-09-26T03:35:39.184Z,6.40
2018-09-26T03:38:08.213Z,6.30
2018-09-26T03:40:36.645Z,6.30
2018-09-26T03:43:05.207Z,6.30
2018-09-26T03:45:33.653Z,6.20
2018-09-26T03:48:02.312Z,6.20
2018-09-26T03:50:30.785Z,6.20
2018-09-26T03:52:59.288Z,6.20
2018-09-26T03:55:27.738Z,6.20
2018-09-26T03:57:56.185Z,6.20
2018-09-26T04:00:24.646Z,6.20
2018-09-26T04:02:53.157Z,6.20
2018-09-26T04:05:21.706Z,6.20
2018-09-26T04:07:50.246Z,6.20
2018-09-26T04:10:18.760Z,6.20
2018-09-26T04:12:47.280Z,6.20
2018-09-26T04:15:15.676Z,6.10
2018-09-26T04:17:44.155Z,6.10
2018-09-26T04:20:12.651Z,6.10
2018-09-26T04:22:41.245Z,6.10
2018-09-26T04:25:09.870Z,6.10
2018-09-26T04:27:38.344Z,6.10
2018-09-26T04:30:07.123Z,6.10
2018-09-26T04:32:35.756Z,6.10
2018-09-26T04:35:04.495Z,6.10
2018-09-26T04:37:33.164Z,6.10
2018-09-26T04:40:01.680Z,6.10
2018-09-26T04:42:30.223Z,6.10
2018-09-26T04:44:58.701Z,6.10
2018-09-26T04:47:27.165Z,6.10
2018-09-26T04:49:55.728Z,6.10
2018-09-26T04:52:24.288Z,6.20
2018-09-26T04:54:52.821Z,6.20
2018-09-26T04:57:21.309Z,6.20
2018-09-26T04:59:49.798Z,6.20
2018-09-26T05:02:18.346Z,6.20
2018-09-26T05:04:46.771Z,6.30
2018-09-26T05:07:15.353Z,6.30
2018-09-26T05:09:43.902Z,6.30
2018-09-26T05:12:12.418Z,6.30
2018-09-26T05:14:40.934Z,6.40
2018-09-26T05:17:09.333Z,6.40
2018-09-26T05:19:38.007Z,6.50
2018-09-26T05:22:06.611Z,6.50
2018-09-26T05:24:35.030Z,6.50
2018-09-26T05:27:03.512Z,6.50
2018-09-26T05:29:31.959Z,6.60
2018-09-26T05:32:00.416Z,6.60
2018-09-26T05:34:29.007Z,6.60
2018-09-26T05:36:57.499Z,6.60
2018-09-26T05:39:25.908Z,6.60
2018-09-26T05:41:54.344Z,6.60
2018-09-26T05:44:22.816Z,6.60
2018-09-26T05:46:51.258Z,6.60
2018-09-26T05:49:19.780Z,6.70
2018-09-26T05:51:48.272Z,6.70
2018-09-26T05:54:16.777Z,6.80
2018-09-26T05:56:45.260Z,6.80
2018-09-26T05:59:13.863Z,6.90
2018-09-26T06:01:42.342Z,7.00
2018-09-26T06:04:10.924Z,7.10
2018-09-26T06:06:39.430Z,7.20
2018-09-26T06:09:10.806Z,7.30
2018-09-26T06:11:39.389Z,7.40
2018-09-26T06:14:08.804Z,7.60
2018-09-26T06:16:37.627Z,7.70
2018-09-26T06:19:06.555Z,7.90
2018-09-26T06:21:35.236Z,8.10
2018-09-26T06:24:03.903Z,8.20
2018-09-26T06:26:32.789Z,8.40
2018-09-26T06:29:01.416Z,8.60
2018-09-26T06:31:30.311Z,8.90
2018-09-26T06:33:58.846Z,9.20
2018-09-26T06:36:27.333Z,9.40
2018-09-26T06:38:55.856Z,9.50
2018-09-26T06:41:24.350Z,9.70
2018-09-26T06:43:53.135Z,9.90
2018-09-26T06:46:21.789Z,10.20
2018-09-26T06:48:50.336Z,10.60
2018-09-26T06:51:18.797Z,10.90
2018-09-26T06:53:47.234Z,11.20
2018-09-26T06:56:15.664Z,11.40
2018-09-26T06:58:44.099Z,11.60
2018-09-26T07:01:12.596Z,11.70
2018-09-26T07:03:41.042Z,11.80
2018-09-26T07:06:09.528Z,11.90
2018-09-26T07:08:38.012Z,12.10
2018-09-26T07:11:06.600Z,12.40
2018-09-26T07:13:35.155Z,12.90
2018-09-26T07:16:03.807Z,13.50
2018-09-26T07:18:32.423Z,14.20
2018-09-26T07:21:00.839Z,14.70
2018-09-26T07:23:29.329Z,15.20
2018-09-26T07:25:57.750Z,15.70
2018-09-26T07:28:26.291Z,16.10
2018-09-26T07:30:54.797Z,16.60
2018-09-26T07:33:23.315Z,16.90
2018-09-26T07:35:51.888Z,17.10
2018-09-26T07:38:20.466Z,17.30
2018-09-26T07:40:49.264Z,17.60
2018-09-26T07:43:18.435Z,18.00
2018-09-26T07:45:47.241Z,18.40
2018-09-26T07:48:15.862Z,18.60
2018-09-26T07:50:44.402Z,18.60
2018-09-26T07:53:12.962Z,18.50
2018-09-26T07:55:42.169Z,18.50
2018-09-26T07:58:10.814Z,18.60
2018-09-26T08:00:39.686Z,18.70
2018-09-26T08:08:49.946Z,19.00
2018-09-26T08:11:18.421Z,19.10
2018-09-26T08:13:46.798Z,19.20
2018-09-26T08:16:15.245Z,19.40
2018-09-26T08:18:43.877Z,19.50
2018-09-26T08:21:12.348Z,19.50
2018-09-26T08:23:41.138Z,19.40
2018-09-26T08:26:09.908Z,19.30
2018-09-26T08:28:38.459Z,19.30
2018-09-26T08:31:07.464Z,19.30
2018-09-26T08:33:36.380Z,19.30
2018-09-26T08:36:04.862Z,19.30
2018-09-26T08:38:33.702Z,19.40
2018-09-26T08:41:02.605Z,19.60
2018-09-26T08:43:31.425Z,19.90
2018-09-26T08:46:00.128Z,20.30
2018-09-26T08:48:28.795Z,21.00
2018-09-26T08:50:57.890Z,21.50
2018-09-26T08:53:27.034Z,21.90
2018-09-26T08:55:55.834Z,22.20
2018-09-26T08:58:24.671Z,22.40
2018-09-26T09:00:54.834Z,22.90
2018-09-26T09:03:23.699Z,23.40
2018-09-26T09:05:52.870Z,23.70
2018-09-26T09:08:22.433Z,24.00
2018-09-26T09:10:51.366Z,24.50
2018-09-26T09:13:19.797Z,24.80
2018-09-26T09:15:49.166Z,25.00
2018-09-26T09:18:17.672Z,24.90
2018-09-26T09:20:46.133Z,25.00
2018-09-26T09:23:14.552Z,25.00
2018-09-26T09:25:43.112Z,24.90
2018-09-26T09:28:11.540Z,25.00
2018-09-26T09:30:40.001Z,25.40
2018-09-26T09:33:08.936Z,25.50
2018-09-26T09:35:37.514Z,25.50
2018-09-26T09:38:06.483Z,25.00
2018-09-26T09:40:35.173Z,24.50
2018-09-26T09:43:04.250Z,24.10
2018-09-26T09:45:32.743Z,23.20
2018-09-26T09:48:01.325Z,22.80
2018-09-26T09:50:30.273Z,22.40
2018-09-26T09:52:58.813Z,22.00
2018-09-26T09:55:27.285Z,21.50
2018-09-26T09:57:56.128Z,21.00
2018-09-26T10:00:30.306Z,20.70
2018-09-26T10:02:59.327Z,20.60
2018-09-26T10:05:28.167Z,20.60
2018-09-26T10:07:57.030Z,21.10
2018-09-26T10:10:26.317Z,21.60
2018-09-26T10:12:54.907Z,22.60
2018-09-26T10:15:23.384Z,23.50
2018-09-26T10:17:52.319Z,24.60
2018-09-26T10:20:20.854Z,25.50
2018-09-26T10:22:49.351Z,26.30
2018-09-26T10:25:18.326Z,27.00
2018-09-26T10:27:46.742Z,27.20
2018-09-26T10:30:15.125Z,27.60
2018-09-26T10:32:43.557Z,27.60
2018-09-26T10:35:12.583Z,27.90
2018-09-26T10:37:41.024Z,28.10
2018-09-26T10:40:10.039Z,28.30
2018-09-26T10:42:38.845Z,28.30
2018-09-26T10:45:07.581Z,27.80
2018-09-26T10:47:36.277Z,27.20
2018-09-26T10:50:05.005Z,26.20
2018-09-26T10:52:33.668Z,25.20
2018-09-26T10:55:08.949Z,24.00
2018-09-26T10:57:37.447Z,23.00
2018-09-26T11:00:06.752Z,22.40
2018-09-26T11:02:35.959Z,21.90
2018-09-26T11:05:04.713Z,21.40
2018-09-26T11:07:33.105Z,20.90
2018-09-26T11:10:01.572Z,20.70
2018-09-26T11:12:29.963Z,20.50
2018-09-26T11:14:59.547Z,20.30
2018-09-26T11:17:28.310Z,20.30
2018-09-26T11:19:56.814Z,20.30
2018-09-26T11:22:25.319Z,20.20
2018-09-26T11:24:53.708Z,20.00
2018-09-26T11:27:22.623Z,19.80
2018-09-26T11:29:51.224Z,19.80
2018-09-26T11:32:19.926Z,19.80
2018-09-26T11:34:48.338Z,19.90
2018-09-26T11:37:16.849Z,19.70
2018-09-26T11:39:52.121Z,19.60
2018-09-26T11:42:20.587Z,19.40
2018-09-26T11:44:49.388Z,19.40
2018-09-26T11:47:17.891Z,19.40
2018-09-26T11:49:46.325Z,19.50
2018-09-26T11:52:15.055Z,19.60
2018-09-26T11:54:43.407Z,19.60
2018-09-26T11:57:11.893Z,19.70
2018-09-26T11:59:40.349Z,19.80
2018-09-26T12:02:08.908Z,19.90
2018-09-26T12:04:37.393Z,19.90
2018-09-26T12:07:06.203Z,20.00
2018-09-26T12:09:34.640Z,20.00
2018-09-26T12:12:03.180Z,20.00
2018-09-26T12:14:31.915Z,20.00
2018-09-26T12:17:00.438Z,20.10
2018-09-26T12:19:29.194Z,20.10
2018-09-26T12:21:57.710Z,19.90
2018-09-26T12:24:26.266Z,19.80
2018-09-26T12:26:54.749Z,19.60
2018-09-26T12:29:23.204Z,19.50
2018-09-26T12:31:51.920Z,19.30
2018-09-26T12:34:20.357Z,19.20
2018-09-26T12:36:48.736Z,19.20
2018-09-26T12:39:17.221Z,19.30
2018-09-26T12:41:45.790Z,19.30
2018-09-26T12:44:14.350Z,19.40
2018-09-26T12:46:42.826Z,19.40
2018-09-26T12:49:11.517Z,19.50
2018-09-26T12:51:39.937Z,19.60
2018-09-26T12:54:09.646Z,19.60
2018-09-26T12:56:38.347Z,19.60
2018-09-26T12:59:06.802Z,19.70
2018-09-26T13:01:35.225Z,19.60
2018-09-26T13:04:03.657Z,19.60
2018-09-26T13:06:32.144Z,19.50
2018-09-26T13:09:00.570Z,19.50
2018-09-26T13:11:29.060Z,19.50
2018-09-26T13:13:57.546Z,19.50
2018-09-26T13:16:25.951Z,19.50
2018-09-26T13:18:54.672Z,19.50
2018-09-26T13:21:23.072Z,19.40
2018-09-26T13:23:51.533Z,19.40
2018-09-26T13:26:20.056Z,19.30
2018-09-26T13:28:48.509Z,19.20
2018-09-26T13:31:16.990Z,19.20
2018-09-26T13:33:45.403Z,19.20
2018-09-26T13:36:14.014Z,19.20
2018-09-26T13:38:42.589Z,19.20
2018-09-26T13:41:11.220Z,19.30
2018-09-26T13:43:39.820Z,19.40
2018-09-26T13:46:08.308Z,19.40
2018-09-26T13:48:36.833Z,19.30
2018-09-26T13:51:05.792Z,19.30
2018-09-26T13:53:34.496Z,19.30
2018-09-26T13:56:02.912Z,19.40
2018-09-26T13:58:31.370Z,19.50
2018-09-26T14:00:59.803Z,19.60
2018-09-26T14:03:28.201Z,19.50
2018-09-26T14:05:56.634Z,19.60
2018-09-26T14:08:25.131Z,19.60
2018-09-26T14:10:53.543Z,19.60
2018-09-26T14:13:22.037Z,19.70
2018-09-26T14:15:50.564Z,19.70
2018-09-26T14:18:19.160Z,19.80
2018-09-26T14:20:47.706Z,19.80
2018-09-26T14:23:16.176Z,19.90
2018-09-26T14:25:44.608Z,20.00
2018-09-26T14:28:13.129Z,20.10
2018-09-26T14:30:41.831Z,20.10
2018-09-26T14:33:10.206Z,20.10
2018-09-26T14:35:38.644Z,20.10
2018-09-26T14:38:07.346Z,20.10
2018-09-26T14:40:35.732Z,20.10
2018-09-26T14:43:04.703Z,20.00
2018-09-26T14:45:40.286Z,19.90
2018-09-26T14:48:09.115Z,19.90
2018-09-26T14:50:38.371Z,20.00
2018-09-26T14:53:06.882Z,19.90
2018-09-26T14:55:36.507Z,19.80
2018-09-26T14:58:05.196Z,19.80
2018-09-26T15:00:33.653Z,19.80
2018-09-26T15:03:03.379Z,19.80
2018-09-26T15:05:32.223Z,19.80
2018-09-26T15:08:00.816Z,19.90
2018-09-26T15:10:29.486Z,19.90
2018-09-26T15:12:58.507Z,19.90
2018-09-26T15:15:27.297Z,19.80
2018-09-26T15:17:55.936Z,19.80
2018-09-26T15:20:24.748Z,19.80
2018-09-26T15:22:53.118Z,19.70
2018-09-26T15:25:21.557Z,19.70
2018-09-26T15:27:50.274Z,19.70
2018-09-26T15:30:18.858Z,19.70
2018-09-26T15:32:47.267Z,19.70
2018-09-26T15:35:16.014Z,19.60
2018-09-26T15:37:44.638Z,19.60
2018-09-26T15:40:13.322Z,19.60
2018-09-26T15:42:42.889Z,19.60
2018-09-26T15:45:13.239Z,19.60
2018-09-26T15:47:41.996Z,19.50
2018-09-26T15:50:10.644Z,19.50
2018-09-26T15:52:39.366Z,19.40
2018-09-26T15:55:07.954Z,19.40
2018-09-26T15:57:36.675Z,19.40
2018-09-26T16:00:05.986Z,19.30
2018-09-26T16:02:41.233Z,19.20
2018-09-26T16:05:10.258Z,19.20
2018-09-26T16:07:38.727Z,19.20
2018-09-26T16:10:07.430Z,19.10
2018-09-26T16:12:36.347Z,19.00
2018-09-26T16:15:06.208Z,19.00
2018-09-26T16:30:34.735Z,18.90
2018-09-26T16:33:04.128Z,18.80
2018-09-26T16:35:32.727Z,18.20
2018-09-26T16:38:01.885Z,18.10
2018-09-26T16:40:30.976Z,18.00
2018-09-26T16:42:59.643Z,18.00
2018-09-26T16:45:28.182Z,18.00
2018-09-26T16:47:57.000Z,17.90
2018-09-26T16:50:26.181Z,17.80
2018-09-26T16:52:55.644Z,17.80
2018-09-26T16:55:24.398Z,17.80
2018-09-26T16:57:53.065Z,17.70
2018-09-26T17:00:23.155Z,17.60
2018-09-26T17:02:52.097Z,17.50
2018-09-26T17:05:21.435Z,17.40
2018-09-26T17:07:50.015Z,17.30
2018-09-26T17:10:18.783Z,17.20
2018-09-26T17:12:47.899Z,17.10
2018-09-26T17:15:16.775Z,17.00
2018-09-26T17:17:46.398Z,16.80
2018-09-26T17:20:15.098Z,16.70
2018-09-26T17:22:43.438Z,16.60
2018-09-26T17:25:12.527Z,16.40
2018-09-26T17:27:41.099Z,16.30
2018-09-26T17:30:09.632Z,16.20
2018-09-26T17:32:38.150Z,16.00
2018-09-26T17:35:06.755Z,15.90
2018-09-26T17:37:35.268Z,15.80
2018-09-26T17:40:04.010Z,15.70
2018-09-26T17:42:32.495Z,15.60
2018-09-26T17:45:00.920Z,15.50
2018-09-26T17:47:29.553Z,15.40
2018-09-26T17:49:58.381Z,15.30
2018-09-26T17:52:27.180Z,15.10
2018-09-26T17:54:56.032Z,15.10
2018-09-26T17:57:25.270Z,15.00
2018-09-26T17:59:53.722Z,14.80
2018-09-26T18:02:22.243Z,14.70
2018-09-26T18:04:50.709Z,14.60
2018-09-26T18:07:19.146Z,14.50
2018-09-26T18:09:47.806Z,14.40
2018-09-26T18:12:16.275Z,14.30
2018-09-26T18:14:44.827Z,14.20
2018-09-26T18:17:13.374Z,14.10
2018-09-26T18:19:41.813Z,14.00
2018-09-26T18:22:10.347Z,13.90
2018-09-26T18:24:38.861Z,13.80
2018-09-26T18:27:07.331Z,13.70
2018-09-26T18:29:36.748Z,13.70
2018-09-26T18:32:05.255Z,13.60
2018-09-26T18:34:33.736Z,13.50
2018-09-26T18:37:02.868Z,13.40
2018-09-26T18:39:31.443Z,13.30
2018-09-26T18:41:59.851Z,13.20
2018-09-26T18:44:28.310Z,13.10
2018-09-26T18:46:56.803Z,13.10
2018-09-26T18:49:25.287Z,13.00
2018-09-26T18:51:53.950Z,12.90
2018-09-26T19:07:21.988Z,12.80
2018-09-26T19:09:50.544Z,12.80
2018-09-26T19:12:19.223Z,12.20
2018-09-26T19:14:47.721Z,12.10
2018-09-26T19:17:16.208Z,12.10
2018-09-26T19:19:44.679Z,12.10
2018-09-26T19:22:13.190Z,12.00
2018-09-26T19:24:41.679Z,12.00
2018-09-26T19:27:10.189Z,11.90
2018-09-26T19:29:38.621Z,11.90
2018-09-26T19:32:07.342Z,11.90
2018-09-26T19:34:35.786Z,11.90
2018-09-26T19:37:04.209Z,11.90
2018-09-26T19:39:32.845Z,11.90
2018-09-26T19:42:01.342Z,11.80
2018-09-26T19:44:30.413Z,11.90
2018-09-26T19:46:58.928Z,11.80
2018-09-26T19:49:27.561Z,11.80
2018-09-26T19:51:56.038Z,11.70
2018-09-26T19:54:24.503Z,11.60
2018-09-26T19:56:52.984Z,11.60
2018-09-26T19:59:21.531Z,11.60
2018-09-26T20:01:50.049Z,11.50
2018-09-26T20:04:18.703Z,11.50
2018-09-26T20:06:47.544Z,11.40
2018-09-26T20:09:16.068Z,11.40
2018-09-26T20:11:44.645Z,11.40
2018-09-26T20:14:13.246Z,11.30
2018-09-26T20:16:42.087Z,11.30
2018-09-26T20:19:11.512Z,11.20
2018-09-26T20:21:39.977Z,11.20
2018-09-26T20:24:08.540Z,11.10
2018-09-26T20:26:37.061Z,11.10
2018-09-26T20:29:05.992Z,11.10
2018-09-26T20:31:34.518Z,11.10
2018-09-26T20:34:03.065Z,11.00
2018-09-26T20:36:31.602Z,11.00
2018-09-26T20:39:00.087Z,10.90
2018-09-26T20:41:28.803Z,10.90
2018-09-26T20:43:58.017Z,10.80
2018-09-26T20:46:27.237Z,10.80
2018-09-26T20:48:55.749Z,10.80
2018-09-26T20:51:24.263Z,10.80
2018-09-26T20:53:52.869Z,10.70
2018-09-26T20:56:21.670Z,10.70
2018-09-26T20:58:50.620Z,10.70
2018-09-26T21:01:19.290Z,10.60
2018-09-26T21:03:47.906Z,10.60
2018-09-26T21:06:16.606Z,10.50
2018-09-26T21:08:45.199Z,10.50
2018-09-26T21:11:14.006Z,10.50
2018-09-26T21:13:43.861Z,10.50
2018-09-26T21:16:12.410Z,10.40
2018-09-26T21:18:40.890Z,10.40
2018-09-26T21:21:09.884Z,10.40
2018-09-26T21:23:38.712Z,10.30
2018-09-26T21:26:08.305Z,10.30
2018-09-26T21:28:37.822Z,10.20
2018-09-26T21:31:06.372Z,10.20
2018-09-26T21:33:34.946Z,10.20
2018-09-26T21:36:03.565Z,10.10
2018-09-26T21:38:32.318Z,10.20
2018-09-26T21:41:00.908Z,10.10
2018-09-26T21:43:29.611Z,10.10
2018-09-26T21:45:58.381Z,10.10
2018-09-26T21:48:27.137Z,10.00
2018-09-26T21:50:57.853Z,10.00
2018-09-26T21:53:26.273Z,9.90
2018-09-26T21:55:56.097Z,9.90
2018-09-26T21:58:25.647Z,9.90
2018-09-26T22:00:59.544Z,9.90
2018-09-26T22:03:29.551Z,9.90
2018-09-26T22:05:58.598Z,9.80
2018-09-26T22:08:27.403Z,9.80
2018-09-26T22:10:56.158Z,9.80
2018-09-26T22:13:26.481Z,9.80
2018-09-26T22:15:55.307Z,9.80
2018-09-26T22:18:24.264Z,9.70
2018-09-26T22:20:53.125Z,9.70
2018-09-26T22:23:21.888Z,9.70
2018-09-26T22:25:50.447Z,9.70
2018-09-26T22:28:19.052Z,9.70
2018-09-26T22:30:49.184Z,9.60
2018-09-26T22:33:18.215Z,9.60
2018-09-26T22:35:46.968Z,9.60
2018-09-26T22:38:16.109Z,9.60
2018-09-26T22:40:45.531Z,9.60
2018-09-26T22:43:14.428Z,9.50
2018-09-26T22:45:43.211Z,9.50
2018-09-26T22:48:12.135Z,9.50
2018-09-26T22:50:41.068Z,9.50
2018-09-26T22:53:10.176Z,9.50
2018-09-26T22:55:39.003Z,9.40
2018-09-26T22:58:07.839Z,9.40
2018-09-26T23:00:37.061Z,9.40
2018-09-26T23:03:06.023Z,9.40
2018-09-26T23:05:34.708Z,9.40
2018-09-26T23:08:03.532Z,9.30
2018-09-26T23:10:32.260Z,9.30
2018-09-26T23:13:01.418Z,9.30
2018-09-26T23:15:30.121Z,9.30
2018-09-26T23:17:58.745Z,9.30
2018-09-26T23:20:27.573Z,9.30
2018-09-26T23:22:56.163Z,9.30
2018-09-26T23:25:24.924Z,9.30
2018-09-26T23:27:54.226Z,9.30
2018-09-26T23:30:22.833Z,9.30
2018-09-26T23:32:51.677Z,9.30
2018-09-26T23:35:20.449Z,9.30
2018-09-26T23:37:49.319Z,9.30
2018-09-26T23:40:18.118Z,9.20
2018-09-26T23:42:47.393Z,9.20
2018-09-26T23:45:16.659Z,9.10
2018-09-26T23:47:45.672Z,9.10
2018-09-26T23:50:14.265Z,9.10
2018-09-26T23:52:42.846Z,9.10
2018-09-26T23:55:11.386Z,9.10
2018-09-26T23:57:40.148Z,9.10
